Time;durP1;ratioP1;P1;durP2;ratioP2;P2;SDS_P1;SDS_P2;PMS_P1;PMS_P2;Temp;Humidity;BMP_temperature;BMP_pressure;BME280_temperature;BME280_humidity;BME280_pressure;Samples;Min_cycle;Max_cycle;Signal;HPM_P1;HPM_P2
2021/05/29 00:00:22;;;;;;;;;;;;;;;23.27;66.50;100460.11;1769438;79;20285;-57
2021/05/29 00:02:50;;;;;;;;;;;;;;;23.25;66.50;100459.66;1774132;79;20258;-58
2021/05/29 00:05:16;;;;;;;;;;;;;;;23.21;66.47;100463.09;1770080;79;20343;-58
2021/05/29 00:07:42;;;;;;;;;;;;;;;23.20;66.45;100463.45;1767794;79;21028;-58
2021/05/29 00:10:09;;;;;;;;;;;;;;;23.18;66.44;100460.20;1745125;80;20266;-58
2021/05/29 00:12:35;;;;;;;;;;;;;;;23.15;66.41;100460.90;1767077;79;20239;-58
2021/05/29 00:15:01;;;;;;;;;;;;;;;23.12;66.41;100456.04;1769386;79;20182;-58
2021/05/29 00:17:29;;;;;;;;;;;;;;;23.10;66.43;100453.59;1767920;79;20219;-57
2021/05/29 00:19:55;;;;;;;;;;;;;;;23.07;66.42;100450.13;1773221;79;22316;-57
2021/05/29 00:22:20;;;;;;;;;;;;;;;23.04;66.43;100452.18;1771365;79;20276;-57
2021/05/29 00:24:46;;;;;;;;;;;;;;;23.02;66.43;100447.56;1770713;79;20226;-57
2021/05/29 00:27:13;;;;;;;;;;;;;;;23.01;66.43;100445.12;1765061;79;20239;-58
2021/05/29 00:29:39;;;;;;;;;;;;;;;22.96;66.44;100442.56;1770986;79;21342;-57
2021/05/29 00:32:06;;;;;;;;;;;;;;;22.95;66.46;100439.58;1770842;80;21040;-57
2021/05/29 00:34:32;;;;;;;;;;;;;;;22.92;66.48;100440.23;1761069;79;20328;-58
2021/05/29 00:36:58;;;;;;;;;;;;;;;22.89;66.48;100438.16;1768697;79;20287;-57
2021/05/29 00:39:24;;;;;;;;;;;;;;;22.88;66.49;100440.11;1769291;79;20215;-57
2021/05/29 00:41:49;;;;;;;;;;;;;;;22.87;66.53;100435.74;1771417;79;20674;-58
2021/05/29 00:44:15;;;;;;;;;;;;;;;22.85;66.52;100440.80;1759534;80;21030;-57
2021/05/29 00:46:41;;;;;;;;;;;;;;;22.84;66.55;100434.20;1769262;79;20206;-58
2021/05/29 00:49:07;;;;;;;;;;;;;;;22.85;66.53;100434.44;1757865;80;20295;-57
2021/05/29 00:51:33;;;;;;;;;;;;;;;22.86;66.54;100434.69;1775404;79;20159;-58
2021/05/29 00:53:59;;;;;;;;;;;;;;;22.88;66.58;100434.56;1767175;79;20297;-58
2021/05/29 00:56:25;;;;;;;;;;;;;;;22.89;66.63;100434.81;1770129;79;21078;-58
2021/05/29 00:58:51;;;;;;;;;;;;;;;22.91;66.67;100436.68;1741758;79;20438;-58
2021/05/29 01:01:17;;;;;;;;;;;;;;;22.93;66.69;100434.36;1768592;79;20796;-58
2021/05/29 01:03:43;;;;;;;;;;;;;;;22.96;66.70;100434.23;1770301;79;20738;-58
2021/05/29 01:06:09;;;;;;;;;;;;;;;22.98;66.70;100428.59;1753296;80;20223;-58
2021/05/29 01:08:35;;;;;;;;;;;;;;;23.01;66.71;100429.86;1769354;79;21188;-57
2021/05/29 01:11:01;;;;;;;;;;;;;;;23.03;66.72;100431.73;1766847;79;20227;-58
2021/05/29 01:13:35;;;;;;;;;;;;;;;23.05;66.70;100436.34;1768531;79;20785;-57
2021/05/29 01:16:04;;;;;;;;;;;;;;;23.06;66.70;100433.24;1758451;80;20279;-58
2021/05/29 01:18:25;;;;;;;;;;;;;;;23.07;66.68;100437.64;1769671;79;20204;-58
2021/05/29 01:20:51;;;;;;;;;;;;;;;23.06;66.67;100439.36;1749795;81;22872;-58
2021/05/29 01:23:17;;;;;;;;;;;;;;;23.06;66.66;100439.36;1771549;79;21598;-58
2021/05/29 01:25:46;;;;;;;;;;;;;;;23.04;66.63;100436.92;1767922;79;20263;-58
2021/05/29 01:28:16;;;;;;;;;;;;;;;23.03;66.60;100441.45;1772542;79;20251;-57
2021/05/29 01:30:48;;;;;;;;;;;;;;;23.02;66.57;100437.04;1756561;80;20312;-58
2021/05/29 01:33:19;;;;;;;;;;;;;;;23.00;66.54;100437.98;1772227;79;21728;-58
2021/05/29 01:35:46;;;;;;;;;;;;;;;22.98;66.53;100440.27;1769642;79;20270;-57
2021/05/29 01:38:13;;;;;;;;;;;;;;;22.95;66.51;100438.19;1759904;80;20537;-58
2021/05/29 01:40:39;;;;;;;;;;;;;;;22.92;66.52;100433.30;1733447;81;20270;-58
2021/05/29 01:43:05;;;;;;;;;;;;;;;22.89;66.50;100432.03;1731467;81;20265;-57
2021/05/29 01:45:31;;;;;;;;;;;;;;;22.87;66.53;100425.22;1739599;81;21027;-57
2021/05/29 01:47:57;;;;;;;;;;;;;;;22.85;66.53;100429.71;1728156;81;20291;-58
2021/05/29 01:50:23;;;;;;;;;;;;;;;22.83;66.53;100433.99;1735403;81;20446;-57
2021/05/29 01:52:55;;;;;;;;;;;;;;;22.80;66.56;100436.85;1738319;81;20451;-58
2021/05/29 01:55:23;;;;;;;;;;;;;;;22.78;66.57;100446.11;1737162;81;20214;-58
2021/05/29 01:57:50;;;;;;;;;;;;;;;22.76;66.59;100446.44;1739565;81;21112;-58
2021/05/29 02:00:17;;;;;;;;;;;;;;;22.74;66.58;100449.33;1738122;81;20237;-58
2021/05/29 02:02:43;;;;;;;;;;;;;;;22.72;66.59;100448.84;1734948;81;20556;-57
2021/05/29 02:05:17;;;;;;;;;;;;;;;22.69;66.60;100448.14;1731703;81;21042;-58
2021/05/29 02:07:43;;;;;;;;;;;;;;;22.67;66.63;100453.98;1725352;81;20595;-58
2021/05/29 02:10:11;;;;;;;;;;;;;;;22.65;66.65;100456.88;1731404;81;21150;-58
2021/05/29 02:12:39;;;;;;;;;;;;;;;22.66;66.64;100468.22;1731291;81;20577;-58
2021/05/29 02:15:07;;;;;;;;;;;;;;;22.67;66.62;100469.81;1737146;81;20257;-58
2021/05/29 02:17:33;;;;;;;;;;;;;;;22.67;66.67;100473.40;1735622;81;20253;-58
2021/05/29 02:19:58;;;;;;;;;;;;;;;22.71;66.71;100474.95;1731872;81;21554;-58
2021/05/29 02:22:24;;;;;;;;;;;;;;;22.71;66.72;100470.22;1732770;81;21019;-58
2021/05/29 02:24:50;;;;;;;;;;;;;;;22.74;66.76;100469.52;1734197;81;20208;-58
2021/05/29 02:27:16;;;;;;;;;;;;;;;22.76;66.78;100474.17;1732548;81;20217;-58
2021/05/29 02:29:42;;;;;;;;;;;;;;;22.79;66.81;100479.60;1738762;81;20538;-58
2021/05/29 02:32:08;;;;;;;;;;;;;;;22.82;66.81;100479.52;1733553;81;20278;-58
2021/05/29 02:34:34;;;;;;;;;;;;;;;22.84;66.81;100483.56;1734511;81;21101;-58
2021/05/29 02:37:00;;;;;;;;;;;;;;;22.86;66.83;100484.05;1737951;81;20210;-58
2021/05/29 02:39:26;;;;;;;;;;;;;;;22.89;66.79;100483.92;1746656;80;20278;-58
2021/05/29 02:41:52;;;;;;;;;;;;;;;22.90;66.79;100488.33;1775662;79;20201;-58
2021/05/29 02:44:18;;;;;;;;;;;;;;;22.91;66.77;100488.57;1771623;79;20291;-58
2021/05/29 02:46:44;;;;;;;;;;;;;;;22.90;66.74;100489.72;1771754;79;21053;-58
2021/05/29 02:49:09;;;;;;;;;;;;;;;22.89;66.71;100494.45;1751009;80;20257;-59
2021/05/29 02:51:35;;;;;;;;;;;;;;;22.88;66.69;100496.98;1754000;80;20249;-58
2021/05/29 02:54:01;;;;;;;;;;;;;;;22.87;66.66;100501.50;1770904;79;20336;-58
2021/05/29 02:56:27;;;;;;;;;;;;;;;22.85;66.64;100492.13;1767578;79;20228;-58
2021/05/29 02:58:53;;;;;;;;;;;;;;;22.82;66.60;100494.20;1772788;79;21058;-57
2021/05/29 03:01:19;;;;;;;;;;;;;;;22.81;66.58;100495.34;1768400;79;20289;-58
2021/05/29 03:03:45;;;;;;;;;;;;;;;22.79;66.58;100496.84;1774926;79;20205;-58
2021/05/29 03:06:11;;;;;;;;;;;;;;;22.76;66.58;100496.93;1769814;79;21048;-59
2021/05/29 03:08:37;;;;;;;;;;;;;;;22.73;66.57;100496.23;1771711;79;20755;-58
2021/05/29 03:11:04;;;;;;;;;;;;;;;22.71;66.57;100504.87;1765193;79;20211;-58
2021/05/29 03:13:30;;;;;;;;;;;;;;;22.68;66.56;100508.88;1759727;80;20227;-58
2021/05/29 03:15:56;;;;;;;;;;;;;;;22.65;66.56;100511.77;1758828;80;20243;-58
2021/05/29 03:18:22;;;;;;;;;;;;;;;22.63;66.57;100509.89;1765255;81;20749;-58
2021/05/29 03:20:48;;;;;;;;;;;;;;;22.61;66.58;100517.75;1758182;80;20597;-57
2021/05/29 03:23:14;;;;;;;;;;;;;;;22.58;66.58;100517.02;1722935;82;21070;-58
2021/05/29 03:25:40;;;;;;;;;;;;;;;22.57;66.61;100520.15;1751088;81;21591;-58
2021/05/29 03:28:06;;;;;;;;;;;;;;;22.56;66.63;100529.61;1726981;82;20215;-58
2021/05/29 03:30:32;;;;;;;;;;;;;;;22.54;66.62;100526.34;1733104;80;20206;-59
2021/05/29 03:32:58;;;;;;;;;;;;;;;22.52;66.63;100527.28;1751493;80;20499;-58
2021/05/29 03:35:24;;;;;;;;;;;;;;;22.50;66.64;100526.22;1746312;80;21908;-59
2021/05/29 03:37:50;;;;;;;;;;;;;;;22.50;66.65;100521.24;1743260;80;20167;-58
2021/05/29 03:40:16;;;;;;;;;;;;;;;22.52;66.63;100521.73;1717543;80;20211;-58
2021/05/29 03:42:42;;;;;;;;;;;;;;;22.53;66.65;100525.53;1711005;83;21330;-58
2021/05/29 03:45:12;;;;;;;;;;;;;;;22.55;66.66;100530.18;1710115;82;20299;-59
2021/05/29 03:47:39;;;;;;;;;;;;;;;22.56;66.71;100531.00;1709808;83;20996;-58
2021/05/29 03:50:05;;;;;;;;;;;;;;;22.58;66.75;100530.89;1732916;81;20491;-58
2021/05/29 03:52:31;;;;;;;;;;;;;;;22.62;66.75;100533.79;1696686;82;20245;-58
2021/05/29 03:54:57;;;;;;;;;;;;;;;22.63;66.77;100530.69;1708033;82;20712;-58
2021/05/29 03:57:24;;;;;;;;;;;;;;;22.67;66.78;100525.27;1710722;82;20204;-58
2021/05/29 03:59:50;;;;;;;;;;;;;;;22.71;66.78;100529.84;1711242;83;21187;-58
2021/05/29 04:02:16;;;;;;;;;;;;;;;22.74;66.78;100533.91;1696195;83;20238;-58
2021/05/29 04:04:42;;;;;;;;;;;;;;;22.76;66.78;100535.19;1693767;83;20347;-59
2021/05/29 04:07:08;;;;;;;;;;;;;;;22.78;66.78;100540.98;1727323;81;20289;-58
2021/05/29 04:09:34;;;;;;;;;;;;;;;22.79;66.76;100535.08;1700919;83;20260;-58
2021/05/29 04:12:00;;;;;;;;;;;;;;;22.79;66.73;100539.84;1706901;82;20946;-58
2021/05/29 04:14:26;;;;;;;;;;;;;;;22.78;66.70;100539.02;1704593;83;20728;-59
2021/05/29 04:16:52;;;;;;;;;;;;;;;22.76;66.66;100537.14;1707884;82;20275;-58
2021/05/29 04:19:18;;;;;;;;;;;;;;;22.76;66.67;100537.96;1707471;82;20701;-58
2021/05/29 04:21:44;;;;;;;;;;;;;;;22.76;66.68;100539.92;1709752;82;20232;-59
2021/05/29 04:24:10;;;;;;;;;;;;;;;22.73;66.67;100531.71;1709292;82;21014;-58
2021/05/29 04:26:36;;;;;;;;;;;;;;;22.73;66.67;100533.09;1711436;82;20298;-59
2021/05/29 04:29:02;;;;;;;;;;;;;;;22.70;66.66;100530.98;1704657;83;20223;-58
2021/05/29 04:31:28;;;;;;;;;;;;;;;22.71;66.69;100542.89;1691839;83;20260;-58
2021/05/29 04:33:53;;;;;;;;;;;;;;;22.67;66.68;100533.02;1720201;82;20218;-58
2021/05/29 04:36:19;;;;;;;;;;;;;;;22.66;66.70;100527.23;1694571;83;21091;-58
2021/05/29 04:38:45;;;;;;;;;;;;;;;22.65;66.71;100540.88;1731334;82;20758;-58
2021/05/29 04:41:11;;;;;;;;;;;;;;;22.62;66.72;100530.45;1728352;81;20172;-59
2021/05/29 04:43:37;;;;;;;;;;;;;;;22.61;66.79;100533.58;1711521;82;22079;-59
2021/05/29 04:46:03;;;;;;;;;;;;;;;22.59;66.82;100535.29;1725008;81;20270;-58
2021/05/29 04:48:29;;;;;;;;;;;;;;;22.58;66.84;100533.66;1706948;82;21058;-60
2021/05/29 04:51:15;;;;;;;;;;;;;;;22.57;66.89;100532.63;1698260;83;20246;-61
2021/05/29 04:53:42;;;;;;;;;;;;;;;22.57;66.90;100543.15;1720120;82;20394;-61
2021/05/29 04:56:08;;;;;;;;;;;;;;;22.56;66.93;100538.74;1701383;82;20304;-61
2021/05/29 04:58:36;;;;;;;;;;;;;;;22.58;66.92;100548.91;1721102;82;20484;-62
2021/05/29 05:01:02;;;;;;;;;;;;;;;22.59;66.95;100547.77;1718023;82;21268;-61
2021/05/29 05:03:28;;;;;;;;;;;;;;;22.61;66.99;100540.51;1733970;81;20217;-60
2021/05/29 05:05:54;;;;;;;;;;;;;;;22.63;67.02;100547.90;1714111;82;20800;-61
2021/05/29 05:08:20;;;;;;;;;;;;;;;22.65;67.12;100549.20;1711609;82;20559;-61
2021/05/29 05:10:46;;;;;;;;;;;;;;;22.67;67.16;100556.59;1709196;82;20216;-61
2021/05/29 05:13:12;;;;;;;;;;;;;;;22.71;67.20;100553.98;1713150;82;21133;-62
2021/05/29 05:15:38;;;;;;;;;;;;;;;22.73;67.24;100552.52;1708389;82;20215;-61
2021/05/29 05:18:07;;;;;;;;;;;;;;;22.76;67.25;100557.95;1710424;82;20223;-61
2021/05/29 05:20:32;;;;;;;;;;;;;;;22.79;67.27;100552.31;1714035;82;20575;-61
2021/05/29 05:22:58;;;;;;;;;;;;;;;22.82;67.25;100557.18;1710565;82;20206;-61
2021/05/29 05:25:24;;;;;;;;;;;;;;;22.84;67.25;100555.67;1731395;81;23251;-61
2021/05/29 05:27:50;;;;;;;;;;;;;;;22.85;67.27;100558.70;1708253;82;20269;-62
2021/05/29 05:30:17;;;;;;;;;;;;;;;22.86;67.26;100565.87;1709225;83;20206;-61
2021/05/29 05:32:44;;;;;;;;;;;;;;;22.85;67.23;100567.02;1709644;82;20795;-61
2021/05/29 05:35:14;;;;;;;;;;;;;;;22.86;67.21;100566.45;1703160;82;20300;-61
2021/05/29 05:37:38;;;;;;;;;;;;;;;22.85;67.18;100561.47;1721156;82;23250;-61
2021/05/29 05:40:05;;;;;;;;;;;;;;;22.84;67.15;100569.55;1701459;82;20206;-61
2021/05/29 05:42:32;;;;;;;;;;;;;;;22.83;67.12;100575.45;1738519;81;20198;-61
2021/05/29 05:44:58;;;;;;;;;;;;;;;22.80;67.11;100572.77;1736250;81;20632;-61
2021/05/29 05:47:24;;;;;;;;;;;;;;;22.79;67.07;100570.34;1737826;81;20272;-61
2021/05/29 05:49:50;;;;;;;;;;;;;;;22.76;67.04;100569.86;1707429;82;23343;-61
2021/05/29 05:52:15;;;;;;;;;;;;;;;22.73;67.05;100573.31;1740351;81;20212;-62
2021/05/29 05:54:41;;;;;;;;;;;;;;;22.71;67.04;100570.62;1733034;81;20248;-61
2021/05/29 05:57:08;;;;;;;;;;;;;;;22.68;67.04;100565.73;1737764;81;20187;-61
2021/05/29 05:59:34;;;;;;;;;;;;;;;22.65;67.05;100565.84;1733515;81;20228;-62
2021/05/29 06:02:00;;;;;;;;;;;;;;;22.63;67.04;100563.97;1739212;81;21098;-61
2021/05/29 06:04:25;;;;;;;;;;;;;;;22.62;67.06;100571.22;1733126;81;20313;-61
2021/05/29 06:06:51;;;;;;;;;;;;;;;22.61;67.06;100570.44;1733876;81;20222;-60
2021/05/29 06:09:17;;;;;;;;;;;;;;;22.62;67.06;100577.58;1731180;81;20455;-61
2021/05/29 06:11:44;;;;;;;;;;;;;;;22.61;67.06;100577.37;1731035;82;20248;-61
2021/05/29 06:19:26;;;;;;;;;;;;;;;22.59;67.04;100582.42;1737210;81;20202;-61
2021/05/29 06:21:53;;;;;;;;;;;;;;;22.59;67.03;100581.04;1745011;81;21898;-61
2021/05/29 06:24:28;;;;;;;;;;;;;;;22.60;67.01;100575.73;1732119;81;20315;-62
2021/05/29 06:26:54;;;;;;;;;;;;;;;22.65;66.99;100586.64;1731905;81;21673;-61
2021/05/29 06:29:21;;;;;;;;;;;;;;;22.66;66.98;100583.30;1736119;81;20221;-61
2021/05/29 06:31:47;;;;;;;;;;;;;;;22.68;67.00;100585.95;1736443;81;20263;-61
2021/05/29 06:34:13;;;;;;;;;;;;;;;22.72;67.00;100594.44;1737824;81;20188;-61
2021/05/29 06:36:39;;;;;;;;;;;;;;;22.73;67.04;100587.18;1733161;81;20574;-61
2021/05/29 06:39:05;;;;;;;;;;;;;;;22.79;67.05;100586.98;1730930;81;21073;-61
2021/05/29 06:41:31;;;;;;;;;;;;;;;22.83;67.05;100587.94;1755442;80;20172;-62
2021/05/29 06:43:57;;;;;;;;;;;;;;;22.86;67.03;100592.80;1767779;79;20465;-61
2021/05/29 06:46:22;;;;;;;;;;;;;;;22.89;67.00;100591.54;1776606;79;21021;-61
2021/05/29 06:48:48;;;;;;;;;;;;;;;22.93;67.01;100591.10;1769216;79;20287;-61
2021/05/29 06:51:18;;;;;;;;;;;;;;;22.96;66.97;100591.80;1769661;79;21055;-61
2021/05/29 06:53:49;;;;;;;;;;;;;;;22.97;66.96;100585.11;1771650;79;21723;-61
2021/05/29 06:58:54;;;;;;;;;;;;;;;22.98;66.87;100577.60;1773305;79;20680;-60
2021/05/29 07:01:22;;;;;;;;;;;;;;;22.97;66.83;100581.52;1775311;79;20769;-60
2021/05/29 07:03:48;;;;;;;;;;;;;;;22.98;66.79;100580.38;1772592;79;21102;-60
2021/05/29 07:06:15;;;;;;;;;;;;;;;22.97;66.76;100578.74;1771751;79;20556;-61
2021/05/29 07:08:41;;;;;;;;;;;;;;;22.98;66.74;100575.64;1777815;79;20297;-61
2021/05/29 07:11:07;;;;;;;;;;;;;;;22.98;66.70;100574.83;1774558;79;20232;-61
2021/05/29 07:13:33;;;;;;;;;;;;;;;22.97;66.67;100571.81;1750534;80;20278;-61
2021/05/29 07:15:59;;;;;;;;;;;;;;;22.97;66.63;100567.65;1763693;80;21072;-61
2021/05/29 07:18:30;;;;;;;;;;;;;;;22.95;66.59;100568.58;1770639;79;20268;-61
2021/05/29 07:20:53;;;;;;;;;;;;;;;22.95;66.57;100576.33;1772459;79;20270;-61
2021/05/29 07:23:19;;;;;;;;;;;;;;;22.92;66.55;100571.44;1773047;79;20266;-61
2021/05/29 07:25:45;;;;;;;;;;;;;;;22.89;66.51;100568.53;1774894;79;20256;-61
2021/05/29 07:28:11;;;;;;;;;;;;;;;22.87;66.52;100573.05;1772350;79;21035;-61
2021/05/29 07:30:37;;;;;;;;;;;;;;;22.85;66.52;100568.41;1770316;79;20271;-61
2021/05/29 07:33:04;;;;;;;;;;;;;;;22.83;66.51;100575.45;1770043;79;20694;-61
2021/05/29 07:35:30;;;;;;;;;;;;;;;22.81;66.54;100576.34;1772875;79;20505;-60
2021/05/29 07:37:56;;;;;;;;;;;;;;;22.79;66.52;100575.89;1772715;79;20468;-60
2021/05/29 07:40:23;;;;;;;;;;;;;;;22.77;66.54;100570.67;1767400;79;20964;-61
2021/05/29 07:42:49;;;;;;;;;;;;;;;22.74;66.54;100569.37;1743505;81;21609;-61
2021/05/29 07:45:15;;;;;;;;;;;;;;;22.73;66.56;100571.92;1745120;81;20191;-61
2021/05/29 07:47:41;;;;;;;;;;;;;;;22.70;66.54;100573.97;1742461;81;20164;-61
2021/05/29 07:50:08;;;;;;;;;;;;;;;22.69;66.56;100578.48;1708063;82;20593;-61
2021/05/29 07:52:34;;;;;;;;;;;;;;;22.68;66.56;100584.57;1746374;81;21231;-61
2021/05/29 07:55:00;;;;;;;;;;;;;;;22.71;66.55;100583.10;1741822;81;20303;-61
2021/05/29 07:57:26;;;;;;;;;;;;;;;22.73;66.56;100583.02;1737159;82;20235;-61
2021/05/29 07:59:52;;;;;;;;;;;;;;;22.76;66.58;100578.17;1737003;81;20476;-60
2021/05/29 08:02:18;;;;;;;;;;;;;;;22.81;66.59;100570.80;1744459;81;20268;-61
2021/05/29 08:04:43;;;;;;;;;;;;;;;22.86;66.61;100574.20;1742642;81;21117;-61
2021/05/29 08:07:09;;;;;;;;;;;;;;;22.90;66.60;100575.71;1725159;82;20236;-61
2021/05/29 08:09:35;;;;;;;;;;;;;;;22.96;66.60;100570.17;1738905;80;20370;-61
2021/05/29 08:12:01;;;;;;;;;;;;;;;23.00;66.56;100564.22;1701693;82;21092;-61
2021/05/29 08:14:27;;;;;;;;;;;;;;;23.04;66.59;100561.78;1739925;81;20283;-60
2021/05/29 08:16:53;;;;;;;;;;;;;;;23.08;66.53;100558.59;1736879;81;21040;-61
2021/05/29 08:19:19;;;;;;;;;;;;;;;23.11;66.50;100561.25;1746587;81;20280;-62
2021/05/29 08:21:46;;;;;;;;;;;;;;;23.13;66.46;100554.77;1746301;81;20530;-61
2021/05/29 08:24:14;;;;;;;;;;;;;;;23.14;66.42;100555.83;1739974;81;20488;-61
2021/05/29 08:26:40;;;;;;;;;;;;;;;23.15;66.39;100553.86;1745901;81;20514;-61
2021/05/29 08:29:06;;;;;;;;;;;;;;;23.17;66.33;100555.70;1735540;81;21106;-61
2021/05/29 08:31:32;;;;;;;;;;;;;;;23.17;66.25;100557.09;1735372;81;20508;-61
2021/05/29 08:33:59;;;;;;;;;;;;;;;23.15;66.20;100558.03;1739612;81;20197;-60
2021/05/29 08:36:24;;;;;;;;;;;;;;;23.14;66.15;100555.83;1743721;81;20523;-61
2021/05/29 08:38:50;;;;;;;;;;;;;;;23.13;66.13;100558.36;1737089;81;20192;-61
2021/05/29 08:41:16;;;;;;;;;;;;;;;23.11;66.11;100550.97;1745431;80;21637;-61
2021/05/29 08:43:43;;;;;;;;;;;;;;;23.12;66.07;100554.55;1766199;80;20306;-60
2021/05/29 08:46:09;;;;;;;;;;;;;;;23.10;66.02;100551.30;1766265;80;20217;-61
2021/05/29 08:48:37;;;;;;;;;;;;;;;23.08;65.99;100547.49;1762222;80;20273;-61
2021/05/29 08:51:13;;;;;;;;;;;;;;;23.08;65.98;100550.27;1742123;80;20244;-60
2021/05/29 08:53:51;;;;;;;;;;;;;;;23.07;65.94;100551.98;1766985;80;23269;-61
2021/05/29 08:56:18;;;;;;;;;;;;;;;23.07;65.93;100558.92;1760963;80;20225;-61
2021/05/29 08:58:44;;;;;;;;;;;;;;;23.07;65.90;100558.92;1765652;80;20477;-61
2021/05/29 09:01:10;;;;;;;;;;;;;;;23.06;65.90;100548.39;1761198;80;20602;-60
2021/05/29 09:03:49;;;;;;;;;;;;;;;23.06;65.88;100552.55;1765959;80;20243;-60
2021/05/29 09:06:19;;;;;;;;;;;;;;;23.05;65.87;100552.31;1763672;80;39009;-60
2021/05/29 09:08:49;;;;;;;;;;;;;;;23.04;65.86;100548.52;1767284;80;20308;-60
2021/05/29 09:11:40;;;;;;;;;;;;;;;23.04;65.86;100556.84;1763174;80;20288;-61
2021/05/29 09:14:27;;;;;;;;;;;;;;;23.03;65.85;100551.05;1759062;80;20328;-60
2021/05/29 09:17:18;;;;;;;;;;;;;;;23.03;65.85;100552.43;1754116;79;20225;-61
2021/05/29 09:20:10;;;;;;;;;;;;;;;23.03;65.81;100542.72;1738404;80;21018;-61
2021/05/29 09:22:41;;;;;;;;;;;;;;;23.02;65.79;100540.52;1745971;80;20242;-62
2021/05/29 09:25:09;;;;;;;;;;;;;;;23.02;65.79;100538.31;1743525;80;20218;-62
2021/05/29 09:27:37;;;;;;;;;;;;;;;23.04;65.74;100547.91;1747653;80;20238;-62
2021/05/29 09:30:05;;;;;;;;;;;;;;;23.06;65.76;100542.03;1744928;80;20215;-62
2021/05/29 09:32:33;;;;;;;;;;;;;;;23.09;65.75;100541.34;1752837;80;21120;-62
2021/05/29 09:35:03;;;;;;;;;;;;;;;23.12;65.80;100543.45;1743515;80;20285;-61
2021/05/29 09:37:28;;;;;;;;;;;;;;;23.14;65.79;100537.78;1739462;80;20202;-62
2021/05/29 09:39:57;;;;;;;;;;;;;;;23.19;65.82;100535.37;1744713;80;20629;-62
2021/05/29 09:42:27;;;;;;;;;;;;;;;23.25;65.82;100534.02;1765654;80;20228;-62
2021/05/29 09:44:53;;;;;;;;;;;;;;;23.29;65.80;100541.09;1774139;80;20397;-61
2021/05/29 09:47:19;;;;;;;;;;;;;;;23.34;65.76;100536.11;1761863;80;20238;-62
2021/05/29 09:49:49;;;;;;;;;;;;;;;23.38;65.73;100537.05;1764752;80;20234;-61
2021/05/29 09:52:27;;;;;;;;;;;;;;;23.41;65.73;100539.73;1740248;80;20286;-62
2021/05/29 09:54:55;;;;;;;;;;;;;;;23.43;65.71;100546.58;1747754;80;20616;-62
2021/05/29 09:57:21;;;;;;;;;;;;;;;23.44;65.62;100538.49;1751509;81;21118;-62
2021/05/29 09:59:57;;;;;;;;;;;;;;;23.44;65.58;100541.84;1713227;82;20237;-62
2021/05/29 10:02:23;;;;;;;;;;;;;;;23.45;65.52;100550.41;1769667;80;20230;-62
2021/05/29 10:04:53;;;;;;;;;;;;;;;23.44;65.49;100539.88;1768003;80;20290;-62
2021/05/29 10:07:17;;;;;;;;;;;;;;;23.44;65.44;100541.84;1765628;80;20215;-62
2021/05/29 10:09:43;;;;;;;;;;;;;;;23.44;65.40;100541.84;1769479;79;20967;-62
2021/05/29 10:12:09;;;;;;;;;;;;;;;23.44;65.36;100537.10;1767871;79;20967;-62
2021/05/29 10:14:35;;;;;;;;;;;;;;;23.47;65.31;100534.20;1765478;80;20522;-62
2021/05/29 10:17:04;;;;;;;;;;;;;;;23.48;65.29;100538.03;1769118;80;20971;-62
2021/05/29 10:19:30;;;;;;;;;;;;;;;23.50;65.20;100532.97;1766738;80;20515;-62
2021/05/29 10:21:56;;;;;;;;;;;;;;;23.52;65.13;100532.60;1767864;80;21138;-62
2021/05/29 10:24:24;;;;;;;;;;;;;;;23.52;65.04;100529.25;1769219;80;20194;-61
2021/05/29 10:26:51;;;;;;;;;;;;;;;23.54;64.97;100531.13;1766832;80;20239;-61
2021/05/29 10:29:17;;;;;;;;;;;;;;;23.56;64.92;100527.98;1725371;82;20293;-62
2021/05/29 10:31:44;;;;;;;;;;;;;;;23.55;64.86;100524.39;1746734;80;20531;-60
2021/05/29 10:34:10;;;;;;;;;;;;;;;23.56;64.82;100526.59;1744727;80;21871;-61
2021/05/29 10:36:57;;;;;;;;;;;;;;;23.56;64.80;100530.19;1728195;82;20190;-61
2021/05/29 10:39:31;;;;;;;;;;;;;;;23.57;64.77;100529.61;1710983;82;20358;-61
2021/05/29 10:42:01;;;;;;;;;;;;;;;23.59;64.70;100525.92;1719170;82;20254;-61
2021/05/29 10:44:38;;;;;;;;;;;;;;;23.61;64.66;100531.93;1714437;82;20277;-61
2021/05/29 10:47:08;;;;;;;;;;;;;;;23.62;64.57;100536.34;1767140;79;21127;-61
2021/05/29 10:49:57;;;;;;;;;;;;;;;23.62;64.49;100520.48;1766306;79;20257;-61
2021/05/29 10:52:42;;;;;;;;;;;;;;;23.63;64.42;100525.47;1759206;79;20286;-60
2021/05/29 10:55:15;;;;;;;;;;;;;;;23.62;64.33;100532.17;1768871;79;20256;-61
2021/05/29 10:57:56;;;;;;;;;;;;;;;23.61;64.25;100529.97;1771015;79;20538;-61
2021/05/29 11:00:41;;;;;;;;;;;;;;;23.60;64.20;100525.56;1769154;79;21070;-61
2021/05/29 11:03:21;;;;;;;;;;;;;;;23.59;64.13;100522.55;1770290;79;20259;-61
2021/05/29 11:05:48;;;;;;;;;;;;;;;23.58;64.08;100523.73;1763996;79;20804;-61
2021/05/29 11:08:34;;;;;;;;;;;;;;;23.57;64.02;100529.04;1771006;79;20221;-62
2021/05/29 11:11:01;;;;;;;;;;;;;;;23.55;63.97;100519.44;1767555;79;20213;-62
2021/05/29 11:13:50;;;;;;;;;;;;;;;23.54;63.94;100517.23;1770648;79;21045;-62
2021/05/29 11:16:16;;;;;;;;;;;;;;;23.54;63.91;100513.08;1763901;79;20254;-62
2021/05/29 11:19:12;;;;;;;;;;;;;;;23.56;63.87;100509.36;1773939;79;20506;-62
2021/05/29 11:22:11;;;;;;;;;;;;;;;23.60;63.83;100512.25;1721756;82;21660;-62
2021/05/29 11:24:52;;;;;;;;;;;;;;;23.61;63.76;100503.58;1761611;80;20272;-61
2021/05/29 11:27:25;;;;;;;;;;;;;;;23.63;63.64;100511.01;1768386;79;21135;-61
2021/05/29 11:30:01;;;;;;;;;;;;;;;23.63;63.57;100513.79;1769360;79;20258;-60
2021/05/29 11:32:51;;;;;;;;;;;;;;;23.63;63.51;100504.06;1766571;79;20271;-60
2021/05/29 11:35:47;;;;;;;;;;;;;;;23.65;63.49;100507.86;1767186;79;20342;-61
2021/05/29 11:38:37;;;;;;;;;;;;;;;23.68;63.41;100509.95;1769572;79;20273;-62
2021/05/29 11:41:09;;;;;;;;;;;;;;;23.70;63.37;100492.37;1769494;79;21702;-62
2021/05/29 11:43:40;;;;;;;;;;;;;;;23.75;63.31;100506.61;1766129;79;20970;-61
2021/05/29 11:46:08;;;;;;;;;;;;;;;23.77;63.26;100497.34;1765879;79;20276;-63
2021/05/29 11:48:40;;;;;;;;;;;;;;;23.80;63.21;100494.70;1768221;79;20515;-62
2021/05/29 11:51:10;;;;;;;;;;;;;;;23.81;63.14;100485.19;1772367;79;20313;-62
2021/05/29 11:53:50;;;;;;;;;;;;;;;23.85;63.11;100488.89;1768116;79;21106;-63
2021/05/29 11:56:19;;;;;;;;;;;;;;;23.89;63.05;100491.20;1768172;79;20270;-61
2021/05/29 11:58:52;;;;;;;;;;;;;;;23.94;62.99;100490.98;1771001;79;20295;-62
2021/05/29 12:01:21;;;;;;;;;;;;;;;24.00;62.96;100485.43;1769776;79;20268;-62
2021/05/29 12:03:49;;;;;;;;;;;;;;;24.06;62.95;100484.02;1765302;79;20230;-61
2021/05/29 12:06:39;;;;;;;;;;;;;;;24.12;62.94;100484.60;1762256;79;21058;-62
2021/05/29 12:09:09;;;;;;;;;;;;;;;24.19;62.90;100479.89;1769964;79;20294;-64
2021/05/29 12:11:36;;;;;;;;;;;;;;;24.23;62.81;100486.38;1770185;79;20340;-63
2021/05/29 12:14:11;;;;;;;;;;;;;;;24.29;62.76;100480.78;1770232;79;20565;-59
2021/05/29 12:16:39;;;;;;;;;;;;;;;24.34;62.71;100482.75;1767388;79;20283;-62
2021/05/29 12:19:05;;;;;;;;;;;;;;;24.42;62.60;100481.80;1770365;79;21007;-61
2021/05/29 12:21:47;;;;;;;;;;;;;;;24.46;62.49;100481.91;1763661;80;20525;-61
2021/05/29 12:24:14;;;;;;;;;;;;;;;24.48;62.35;100478.20;1769905;79;20264;-61
2021/05/29 12:26:40;;;;;;;;;;;;;;;24.50;62.23;100479.47;1768690;79;20259;-61
2021/05/29 12:29:06;;;;;;;;;;;;;;;24.51;62.11;100484.45;1762452;79;20279;-61
2021/05/29 12:31:53;;;;;;;;;;;;;;;24.51;62.01;100485.27;1772306;79;21128;-61
2021/05/29 12:34:20;;;;;;;;;;;;;;;24.55;61.93;100482.58;1768626;79;20256;-61
2021/05/29 12:37:05;;;;;;;;;;;;;;;24.57;61.82;100479.67;1765082;79;20279;-61
2021/05/29 12:39:46;;;;;;;;;;;;;;;24.60;61.76;100478.75;1770721;79;20294;-61
2021/05/29 12:42:28;;;;;;;;;;;;;;;24.62;61.63;100475.02;1767251;79;20264;-62
2021/05/29 12:44:57;;;;;;;;;;;;;;;24.61;61.54;100462.30;1770790;79;21122;-62
2021/05/29 12:47:24;;;;;;;;;;;;;;;24.62;61.45;100466.09;1765547;80;20255;-62
2021/05/29 12:49:52;;;;;;;;;;;;;;;24.61;61.37;100480.38;1762346;79;20218;-61